QTR1189 OEJN-OTHH
Flight info
| Callsign | QTR1189 |
|---|---|
| Flight time | 1h 43m |
| Altitude | 37000 |
| Route | EGREP B417 PATOR T532 DAW J852 KSA H744 KINIB Z511 GISRA L681 ORLEK |
| Aircraft | A35K/H-SDE2E3GHIJ1J3J4J5LM1ORWXY/LB1D1 |
Departure
| Time | 2026-05-04 19:37 |
|---|---|
| Airport | King Abdulaziz International Airport (OEJN) |
Arrival
| Time | 2026-05-04 21:21 |
|---|---|
| Airport | Hamad International Airport (OTHH) |
| Time | Latitude | Longitude | Altitude | Speed | Heading |
|---|---|---|---|---|---|
| 2026-05-04 19:03 | 21.70051 | 39.13319 | 29 ft | 0 kts | 69° |
| 2026-05-04 19:21 | 21.70047 | 39.13308 | 28 ft | 4 kts | 73° |
| 2026-05-04 19:21 | 21.70042 | 39.13280 | 12 ft | 4 kts | 90° |
| 2026-05-04 19:21 | 21.70045 | 39.13252 | 28 ft | 4 kts | 106° |
| 2026-05-04 19:21 | 21.70051 | 39.13232 | 27 ft | 1 kts | 107° |
| 2026-05-04 19:22 | 21.70051 | 39.13229 | 27 ft | 0 kts | 107° |
| 2026-05-04 19:23 | 21.70051 | 39.13230 | 27 ft | 1 kts | 107° |
| 2026-05-04 19:23 | 21.70045 | 39.13235 | 27 ft | 1 kts | 142° |
| 2026-05-04 19:23 | 21.70040 | 39.13235 | 29 ft | 0 kts | 163° |
| 2026-05-04 19:25 | 21.70033 | 39.13238 | 29 ft | 3 kts | 163° |
| 2026-05-04 19:25 | 21.70000 | 39.13249 | 29 ft | 7 kts | 162° |
| 2026-05-04 19:25 | 21.69928 | 39.13275 | 29 ft | 13 kts | 161° |
| 2026-05-04 19:25 | 21.69828 | 39.13315 | 30 ft | 17 kts | 159° |
| 2026-05-04 19:26 | 21.69707 | 39.13368 | 30 ft | 20 kts | 158° |
| 2026-05-04 19:26 | 21.69591 | 39.13418 | 31 ft | 19 kts | 158° |
| 2026-05-04 19:26 | 21.69481 | 39.13467 | 31 ft | 12 kts | 158° |
| 2026-05-04 19:26 | 21.69448 | 39.13477 | 31 ft | 3 kts | 179° |
| 2026-05-04 19:27 | 21.69430 | 39.13463 | 31 ft | 4 kts | 227° |
| 2026-05-04 19:27 | 21.69412 | 39.13423 | 32 ft | 8 kts | 245° |
| 2026-05-04 19:27 | 21.69371 | 39.13373 | 32 ft | 10 kts | 197° |
| 2026-05-04 19:27 | 21.69293 | 39.13390 | 32 ft | 13 kts | 161° |
| 2026-05-04 19:28 | 21.69193 | 39.13428 | 33 ft | 17 kts | 160° |
| 2026-05-04 19:28 | 21.69072 | 39.13475 | 33 ft | 20 kts | 160° |
| 2026-05-04 19:28 | 21.68928 | 39.13530 | 34 ft | 23 kts | 159° |
| 2026-05-04 19:28 | 21.68766 | 39.13595 | 34 ft | 26 kts | 160° |
| 2026-05-04 19:29 | 21.68584 | 39.13667 | 35 ft | 29 kts | 160° |
| 2026-05-04 19:29 | 21.68409 | 39.13737 | 36 ft | 25 kts | 159° |
| 2026-05-04 19:29 | 21.68267 | 39.13798 | 36 ft | 17 kts | 141° |
| 2026-05-04 19:29 | 21.68273 | 39.13917 | 36 ft | 18 kts | 65° |
| 2026-05-04 19:30 | 21.68324 | 39.14054 | 36 ft | 22 kts | 70° |
| 2026-05-04 19:30 | 21.68378 | 39.14218 | 35 ft | 25 kts | 70° |
| 2026-05-04 19:30 | 21.68440 | 39.14402 | 34 ft | 28 kts | 70° |
| 2026-05-04 19:30 | 21.68510 | 39.14600 | 32 ft | 27 kts | 69° |
| 2026-05-04 19:31 | 21.68580 | 39.14798 | 32 ft | 29 kts | 69° |
| 2026-05-04 19:31 | 21.68649 | 39.14995 | 31 ft | 25 kts | 69° |
| 2026-05-04 19:31 | 21.68706 | 39.15161 | 30 ft | 20 kts | 69° |
| 2026-05-04 19:31 | 21.68713 | 39.15250 | 30 ft | 10 kts | 131° |
| 2026-05-04 19:32 | 21.68647 | 39.15281 | 31 ft | 13 kts | 159° |
| 2026-05-04 19:32 | 21.68552 | 39.15319 | 31 ft | 16 kts | 160° |
| 2026-05-04 19:32 | 21.68432 | 39.15366 | 31 ft | 21 kts | 160° |
| 2026-05-04 19:32 | 21.68287 | 39.15422 | 32 ft | 24 kts | 160° |
| 2026-05-04 19:33 | 21.68119 | 39.15489 | 33 ft | 27 kts | 160° |
| 2026-05-04 19:33 | 21.67938 | 39.15560 | 35 ft | 29 kts | 160° |
| 2026-05-04 19:33 | 21.67754 | 39.15633 | 35 ft | 27 kts | 160° |
| 2026-05-04 19:33 | 21.67567 | 39.15707 | 36 ft | 30 kts | 160° |
| 2026-05-04 19:34 | 21.67379 | 39.15780 | 36 ft | 28 kts | 160° |
| 2026-05-04 19:34 | 21.67197 | 39.15853 | 37 ft | 27 kts | 160° |
| 2026-05-04 19:34 | 21.67011 | 39.15926 | 38 ft | 28 kts | 159° |
| 2026-05-04 19:34 | 21.66867 | 39.15982 | 39 ft | 22 kts | 161° |
| 2026-05-04 19:35 | 21.66715 | 39.16044 | 39 ft | 25 kts | 159° |
| 2026-05-04 19:35 | 21.66554 | 39.16108 | 40 ft | 25 kts | 160° |
| 2026-05-04 19:35 | 21.66385 | 39.16174 | 41 ft | 24 kts | 160° |
| 2026-05-04 19:35 | 21.66234 | 39.16233 | 41 ft | 22 kts | 159° |
| 2026-05-04 19:36 | 21.66101 | 39.16295 | 41 ft | 18 kts | 134° |
| 2026-05-04 19:36 | 21.66117 | 39.16426 | 40 ft | 20 kts | 63° |
| 2026-05-04 19:36 | 21.66234 | 39.16442 | 39 ft | 19 kts | 340° |
| 2026-05-04 19:36 | 21.66373 | 39.16387 | 40 ft | 56 kts | 340° |
| 2026-05-04 19:37 | 21.67005 | 39.16139 | 40 ft | 134 kts | 340° |
| 2026-05-04 19:37 | 21.68060 | 39.15721 | 378 ft | 170 kts | 339° |
| 2026-05-04 19:37 | 21.69138 | 39.15290 | 1395 ft | 162 kts | 341° |
| 2026-05-04 19:37 | 21.70585 | 39.14712 | 2319 ft | 175 kts | 341° |
| 2026-05-04 19:38 | 21.71401 | 39.14385 | 2555 ft | 196 kts | 340° |
| 2026-05-04 19:38 | 21.72782 | 39.13845 | 2906 ft | 225 kts | 340° |
| 2026-05-04 19:38 | 21.74331 | 39.13238 | 3398 ft | 246 kts | 339° |
| 2026-05-04 19:38 | 21.75978 | 39.12590 | 4160 ft | 257 kts | 339° |
| 2026-05-04 19:39 | 21.77684 | 39.11917 | 4961 ft | 265 kts | 339° |
| 2026-05-04 19:39 | 21.79421 | 39.11230 | 5603 ft | 267 kts | 339° |
| 2026-05-04 19:39 | 21.81188 | 39.10532 | 6240 ft | 273 kts | 339° |
| 2026-05-04 19:39 | 21.82948 | 39.09837 | 7117 ft | 274 kts | 338° |
| 2026-05-04 19:40 | 21.84779 | 39.09113 | 7988 ft | 279 kts | 338° |
| 2026-05-04 19:40 | 21.86587 | 39.08398 | 8884 ft | 283 kts | 338° |
| 2026-05-04 19:40 | 21.88452 | 39.07661 | 9803 ft | 287 kts | 338° |
| 2026-05-04 19:40 | 21.90367 | 39.06899 | 10463 ft | 303 kts | 337° |
| 2026-05-04 19:41 | 21.92381 | 39.05974 | 10827 ft | 326 kts | 333° |
| 2026-05-04 19:41 | 21.94500 | 39.04929 | 11368 ft | 341 kts | 333° |
| 2026-05-04 19:41 | 21.96687 | 39.03858 | 12125 ft | 349 kts | 334° |
| 2026-05-04 19:41 | 21.98928 | 39.02774 | 12912 ft | 357 kts | 334° |
| 2026-05-04 19:42 | 22.01218 | 39.01672 | 13729 ft | 363 kts | 334° |
| 2026-05-04 19:42 | 22.03546 | 39.00555 | 14484 ft | 369 kts | 334° |
| 2026-05-04 19:42 | 22.05906 | 38.99424 | 15252 ft | 374 kts | 334° |
| 2026-05-04 19:42 | 22.08298 | 38.98278 | 16055 ft | 378 kts | 334° |
| 2026-05-04 19:43 | 22.10712 | 38.97126 | 16843 ft | 382 kts | 334° |
| 2026-05-04 19:43 | 22.13261 | 38.96221 | 17622 ft | 390 kts | 347° |
| 2026-05-04 19:43 | 22.15996 | 38.96099 | 18369 ft | 399 kts | 5° |
| 2026-05-04 19:43 | 22.18649 | 38.96906 | 19044 ft | 407 kts | 24° |
| 2026-05-04 19:44 | 22.21046 | 38.98635 | 19765 ft | 413 kts | 40° |
| 2026-05-04 19:44 | 22.23194 | 39.00724 | 20462 ft | 418 kts | 41° |
| 2026-05-04 19:44 | 22.25323 | 39.02830 | 21148 ft | 424 kts | 41° |
| 2026-05-04 19:44 | 22.27467 | 39.05039 | 21840 ft | 430 kts | 45° |
| 2026-05-04 19:45 | 22.29319 | 39.07600 | 22541 ft | 436 kts | 57° |
| 2026-05-04 19:45 | 22.30658 | 39.10568 | 23221 ft | 442 kts | 70° |
| 2026-05-04 19:45 | 22.31501 | 39.13789 | 23838 ft | 447 kts | 77° |
| 2026-05-04 19:45 | 22.32207 | 39.17077 | 24453 ft | 452 kts | 77° |
| 2026-05-04 19:46 | 22.32912 | 39.20406 | 24990 ft | 459 kts | 77° |
| 2026-05-04 19:46 | 22.33636 | 39.23790 | 25536 ft | 465 kts | 77° |
| 2026-05-04 19:46 | 22.34374 | 39.27220 | 26088 ft | 471 kts | 77° |
| 2026-05-04 19:46 | 22.35126 | 39.30696 | 26660 ft | 478 kts | 77° |
| 2026-05-04 19:47 | 22.35887 | 39.34211 | 27192 ft | 484 kts | 77° |
| 2026-05-04 19:47 | 22.36647 | 39.37724 | 27751 ft | 488 kts | 77° |
| 2026-05-04 19:47 | 22.37424 | 39.41312 | 28356 ft | 493 kts | 77° |
| 2026-05-04 19:47 | 22.38210 | 39.44946 | 28896 ft | 500 kts | 77° |
| 2026-05-04 19:48 | 22.39005 | 39.48628 | 29345 ft | 507 kts | 77° |
| 2026-05-04 19:48 | 22.39811 | 39.52361 | 29839 ft | 513 kts | 77° |
| 2026-05-04 19:48 | 22.40625 | 39.56140 | 30290 ft | 519 kts | 77° |
| 2026-05-04 19:48 | 22.41448 | 39.59949 | 30764 ft | 523 kts | 77° |
| 2026-05-04 19:49 | 22.42277 | 39.63787 | 31267 ft | 526 kts | 77° |
| 2026-05-04 19:49 | 22.43112 | 39.67653 | 31707 ft | 530 kts | 77° |
| 2026-05-04 19:49 | 22.43952 | 39.71559 | 32126 ft | 535 kts | 77° |
| 2026-05-04 19:49 | 22.44799 | 39.75500 | 32530 ft | 539 kts | 77° |
| 2026-05-04 19:50 | 22.45834 | 39.79417 | 32970 ft | 544 kts | 69° |
| 2026-05-04 19:50 | 22.47467 | 39.83120 | 33349 ft | 547 kts | 57° |
| 2026-05-04 19:50 | 22.49741 | 39.86411 | 33769 ft | 546 kts | 44° |
| 2026-05-04 19:50 | 22.52440 | 39.89282 | 34144 ft | 546 kts | 39° |
| 2026-05-04 19:51 | 22.55281 | 39.92059 | 34302 ft | 553 kts | 38° |
| 2026-05-04 19:51 | 22.58188 | 39.94799 | 34637 ft | 556 kts | 37° |
| 2026-05-04 19:51 | 22.61076 | 39.97496 | 35133 ft | 554 kts | 37° |
| 2026-05-04 19:51 | 22.63996 | 40.00233 | 35639 ft | 552 kts | 37° |
| 2026-05-04 19:52 | 22.66890 | 40.02966 | 36120 ft | 552 kts | 37° |
| 2026-05-04 19:52 | 22.69768 | 40.05700 | 36615 ft | 550 kts | 38° |
| 2026-05-04 19:52 | 22.72642 | 40.08445 | 36961 ft | 550 kts | 38° |
| 2026-05-04 19:53 | 22.78299 | 40.13873 | 37063 ft | 536 kts | 38° |
| 2026-05-04 19:53 | 22.83862 | 40.19218 | 37061 ft | 533 kts | 38° |
| 2026-05-04 19:54 | 22.89414 | 40.24550 | 37058 ft | 533 kts | 38° |
| 2026-05-04 19:54 | 22.94962 | 40.29885 | 37045 ft | 533 kts | 38° |
| 2026-05-04 19:55 | 23.00480 | 40.35197 | 37048 ft | 533 kts | 38° |
| 2026-05-04 19:55 | 23.06030 | 40.40548 | 37034 ft | 533 kts | 38° |
| 2026-05-04 19:56 | 23.11573 | 40.45898 | 37027 ft | 534 kts | 38° |
| 2026-05-04 19:56 | 23.17132 | 40.51268 | 37020 ft | 534 kts | 38° |
| 2026-05-04 19:57 | 23.22674 | 40.56632 | 37016 ft | 533 kts | 38° |
| 2026-05-04 19:57 | 23.27644 | 40.62628 | 37044 ft | 539 kts | 56° |
| 2026-05-04 19:58 | 23.30829 | 40.70047 | 37011 ft | 543 kts | 68° |
| 2026-05-04 19:58 | 23.33490 | 40.77692 | 37014 ft | 544 kts | 70° |
| 2026-05-04 19:59 | 23.36104 | 40.85431 | 37010 ft | 544 kts | 70° |
| 2026-05-04 19:59 | 23.38746 | 40.93153 | 37015 ft | 544 kts | 69° |
| 2026-05-04 20:00 | 23.41409 | 41.00866 | 37015 ft | 544 kts | 69° |
| 2026-05-04 20:00 | 23.44080 | 41.08596 | 37011 ft | 545 kts | 69° |
| 2026-05-04 20:01 | 23.46746 | 41.16325 | 37007 ft | 545 kts | 69° |
| 2026-05-04 20:01 | 23.49406 | 41.24056 | 37009 ft | 544 kts | 69° |
| 2026-05-04 20:02 | 23.52058 | 41.31782 | 37005 ft | 544 kts | 69° |
| 2026-05-04 20:02 | 23.54690 | 41.39461 | 37011 ft | 544 kts | 70° |
| 2026-05-04 20:03 | 23.57336 | 41.47194 | 37004 ft | 544 kts | 70° |
| 2026-05-04 20:03 | 23.59975 | 41.54925 | 37006 ft | 544 kts | 70° |
| 2026-05-04 20:04 | 23.62609 | 41.62652 | 36996 ft | 542 kts | 70° |
| 2026-05-04 20:04 | 23.65232 | 41.70361 | 36997 ft | 542 kts | 70° |
| 2026-05-04 20:05 | 23.67850 | 41.78081 | 36986 ft | 543 kts | 70° |
| 2026-05-04 20:05 | 23.70349 | 41.85858 | 36986 ft | 543 kts | 71° |
| 2026-05-04 20:06 | 23.72791 | 41.93653 | 36991 ft | 543 kts | 71° |
| 2026-05-04 20:06 | 23.75255 | 42.01441 | 36982 ft | 543 kts | 70° |
| 2026-05-04 20:07 | 23.77859 | 42.09108 | 36982 ft | 541 kts | 69° |
| 2026-05-04 20:07 | 23.80527 | 42.16791 | 36980 ft | 541 kts | 69° |
| 2026-05-04 20:08 | 23.83171 | 42.24477 | 36980 ft | 540 kts | 69° |
| 2026-05-04 20:08 | 23.85791 | 42.32165 | 36980 ft | 539 kts | 69° |
| 2026-05-04 20:09 | 23.88400 | 42.39853 | 36983 ft | 539 kts | 69° |
| 2026-05-04 20:09 | 23.91003 | 42.47540 | 36981 ft | 539 kts | 70° |
| 2026-05-04 20:10 | 23.93607 | 42.55237 | 36981 ft | 540 kts | 70° |
| 2026-05-04 20:10 | 23.96207 | 42.62938 | 36969 ft | 540 kts | 70° |
| 2026-05-04 20:11 | 23.98363 | 42.69334 | 36978 ft | 539 kts | 70° |
| 2026-05-04 20:11 | 24.00638 | 42.76095 | 36974 ft | 538 kts | 70° |
| 2026-05-04 20:12 | 24.03222 | 42.83787 | 36968 ft | 539 kts | 70° |
| 2026-05-04 20:12 | 24.05793 | 42.91454 | 36968 ft | 540 kts | 70° |
| 2026-05-04 20:13 | 24.08348 | 42.99194 | 36968 ft | 540 kts | 70° |
| 2026-05-04 20:13 | 24.10881 | 43.06934 | 36968 ft | 540 kts | 70° |
| 2026-05-04 20:14 | 24.13413 | 43.14666 | 36977 ft | 540 kts | 70° |
| 2026-05-04 20:14 | 24.15952 | 43.22419 | 36969 ft | 542 kts | 70° |
| 2026-05-04 20:15 | 24.18494 | 43.30192 | 36973 ft | 542 kts | 70° |
| 2026-05-04 20:15 | 24.21030 | 43.37961 | 36970 ft | 541 kts | 70° |
| 2026-05-04 20:16 | 24.23542 | 43.45673 | 36978 ft | 541 kts | 70° |
| 2026-05-04 20:16 | 24.26066 | 43.53437 | 36965 ft | 542 kts | 70° |
| 2026-05-04 20:17 | 24.28593 | 43.61216 | 36967 ft | 542 kts | 70° |
| 2026-05-04 20:17 | 24.31130 | 43.69053 | 36963 ft | 541 kts | 70° |
| 2026-05-04 20:18 | 24.33629 | 43.76791 | 36965 ft | 541 kts | 70° |
| 2026-05-04 20:18 | 24.36142 | 43.84582 | 36958 ft | 542 kts | 70° |
| 2026-05-04 20:19 | 24.38650 | 43.92374 | 36960 ft | 542 kts | 70° |
| 2026-05-04 20:19 | 24.41156 | 44.00175 | 36962 ft | 541 kts | 70° |
| 2026-05-04 20:20 | 24.43659 | 44.07981 | 36962 ft | 541 kts | 70° |
| 2026-05-04 20:20 | 24.45601 | 44.15883 | 36971 ft | 540 kts | 79° |
| 2026-05-04 20:21 | 24.47067 | 44.23980 | 36961 ft | 540 kts | 81° |
| 2026-05-04 20:21 | 24.49144 | 44.36136 | 36966 ft | 540 kts | 81° |
| 2026-05-04 20:22 | 24.50533 | 44.44234 | 36949 ft | 539 kts | 81° |
| 2026-05-04 20:22 | 24.51923 | 44.52301 | 36961 ft | 537 kts | 80° |
| 2026-05-04 20:23 | 24.53311 | 44.60358 | 36956 ft | 538 kts | 81° |
| 2026-05-04 20:23 | 24.54464 | 44.67093 | 36951 ft | 538 kts | 81° |
| 2026-05-04 20:24 | 24.55840 | 44.75155 | 36947 ft | 537 kts | 81° |
| 2026-05-04 20:24 | 24.57213 | 44.83221 | 36946 ft | 537 kts | 81° |
| 2026-05-04 20:25 | 24.58579 | 44.91276 | 36939 ft | 536 kts | 81° |
| 2026-05-04 20:25 | 24.59945 | 44.99335 | 36944 ft | 537 kts | 81° |
| 2026-05-04 20:26 | 24.61308 | 45.07423 | 36935 ft | 537 kts | 81° |
| 2026-05-04 20:26 | 24.62657 | 45.15481 | 36915 ft | 536 kts | 81° |
| 2026-05-04 20:27 | 24.64000 | 45.23524 | 36919 ft | 534 kts | 81° |
| 2026-05-04 20:27 | 24.65336 | 45.31543 | 36918 ft | 533 kts | 81° |
| 2026-05-04 20:28 | 24.66659 | 45.39507 | 36917 ft | 533 kts | 81° |
| 2026-05-04 20:28 | 24.67985 | 45.47520 | 36911 ft | 533 kts | 81° |
| 2026-05-04 20:29 | 24.69308 | 45.55542 | 36913 ft | 533 kts | 81° |
| 2026-05-04 20:29 | 24.70625 | 45.63555 | 36909 ft | 532 kts | 81° |
| 2026-05-04 20:30 | 24.72352 | 45.71484 | 36911 ft | 533 kts | 75° |
| 2026-05-04 20:30 | 24.74442 | 45.79299 | 36912 ft | 533 kts | 74° |
| 2026-05-04 20:31 | 24.76585 | 45.87102 | 36910 ft | 532 kts | 74° |
| 2026-05-04 20:31 | 24.78705 | 45.94851 | 36910 ft | 532 kts | 74° |
| 2026-05-04 20:32 | 24.80824 | 46.02652 | 36908 ft | 532 kts | 74° |
| 2026-05-04 20:32 | 24.82932 | 46.10448 | 36909 ft | 532 kts | 74° |
| 2026-05-04 20:33 | 24.85039 | 46.18259 | 36905 ft | 531 kts | 74° |
| 2026-05-04 20:33 | 24.87140 | 46.26063 | 36908 ft | 531 kts | 74° |
| 2026-05-04 20:34 | 24.89233 | 46.33854 | 36906 ft | 530 kts | 74° |
| 2026-05-04 20:34 | 24.91323 | 46.41654 | 36906 ft | 530 kts | 74° |
| 2026-05-04 20:35 | 24.93409 | 46.49449 | 36908 ft | 530 kts | 74° |
| 2026-05-04 20:35 | 24.95487 | 46.57242 | 36902 ft | 530 kts | 75° |
| 2026-05-04 20:36 | 24.97555 | 46.64967 | 36907 ft | 529 kts | 73° |
| 2026-05-04 20:36 | 25.00366 | 46.72469 | 36911 ft | 528 kts | 66° |
| 2026-05-04 20:37 | 25.03424 | 46.79841 | 36910 ft | 528 kts | 65° |
| 2026-05-04 20:37 | 25.06517 | 46.87193 | 36906 ft | 528 kts | 65° |
| 2026-05-04 20:38 | 25.09599 | 46.94558 | 36897 ft | 528 kts | 65° |
| 2026-05-04 20:38 | 25.12664 | 47.01925 | 36896 ft | 527 kts | 65° |
| 2026-05-04 20:39 | 25.15713 | 47.09277 | 36900 ft | 527 kts | 65° |
| 2026-05-04 20:39 | 25.18739 | 47.16588 | 36898 ft | 526 kts | 65° |
| 2026-05-04 20:40 | 25.21775 | 47.23933 | 36894 ft | 526 kts | 65° |
| 2026-05-04 20:40 | 25.24811 | 47.31288 | 36889 ft | 526 kts | 65° |
| 2026-05-04 20:41 | 25.27840 | 47.38641 | 36880 ft | 526 kts | 65° |
| 2026-05-04 20:41 | 25.30838 | 47.45927 | 36886 ft | 524 kts | 65° |
| 2026-05-04 20:42 | 25.33363 | 47.52077 | 36883 ft | 524 kts | 65° |
| 2026-05-04 20:42 | 25.36371 | 47.59411 | 36882 ft | 524 kts | 65° |
| 2026-05-04 20:43 | 25.39381 | 47.66766 | 36876 ft | 524 kts | 65° |
| 2026-05-04 20:43 | 25.42381 | 47.74100 | 36872 ft | 523 kts | 65° |
| 2026-05-04 20:44 | 25.45373 | 47.81445 | 36880 ft | 523 kts | 65° |
| 2026-05-04 20:44 | 25.48343 | 47.88754 | 36867 ft | 524 kts | 65° |
| 2026-05-04 20:45 | 25.51330 | 47.96113 | 36867 ft | 524 kts | 65° |
| 2026-05-04 20:45 | 25.54310 | 48.03470 | 36859 ft | 524 kts | 65° |
| 2026-05-04 20:46 | 25.57307 | 48.10864 | 36859 ft | 526 kts | 65° |
| 2026-05-04 20:46 | 25.60303 | 48.18267 | 36857 ft | 527 kts | 65° |
| 2026-05-04 20:47 | 25.63298 | 48.25684 | 36853 ft | 527 kts | 65° |
| 2026-05-04 20:47 | 25.66291 | 48.33115 | 36843 ft | 528 kts | 65° |
| 2026-05-04 20:48 | 25.67526 | 48.36946 | 36845 ft | 528 kts | 76° |
| 2026-05-04 20:48 | 25.68157 | 48.40941 | 36842 ft | 525 kts | 88° |
| 2026-05-04 20:48 | 25.68035 | 48.49004 | 36842 ft | 523 kts | 96° |
| 2026-05-04 20:49 | 25.67506 | 48.57009 | 36838 ft | 525 kts | 98° |
| 2026-05-04 20:49 | 25.66927 | 48.65076 | 36836 ft | 525 kts | 97° |
| 2026-05-04 20:50 | 25.66378 | 48.73160 | 36838 ft | 526 kts | 97° |
| 2026-05-04 20:50 | 25.65848 | 48.81245 | 36834 ft | 525 kts | 97° |
| 2026-05-04 20:51 | 25.65319 | 48.89325 | 36828 ft | 525 kts | 97° |
| 2026-05-04 20:51 | 25.64784 | 48.97395 | 36825 ft | 525 kts | 97° |
| 2026-05-04 20:52 | 25.63887 | 49.05416 | 36826 ft | 523 kts | 101° |
| 2026-05-04 20:52 | 25.62868 | 49.13396 | 36829 ft | 522 kts | 102° |
| 2026-05-04 20:53 | 25.61844 | 49.21309 | 36799 ft | 521 kts | 102° |
| 2026-05-04 20:53 | 25.60810 | 49.29244 | 36820 ft | 519 kts | 102° |
| 2026-05-04 20:54 | 25.59775 | 49.37153 | 36822 ft | 518 kts | 102° |
| 2026-05-04 20:54 | 25.58736 | 49.45050 | 36816 ft | 518 kts | 102° |
| 2026-05-04 20:55 | 25.57691 | 49.52962 | 36698 ft | 524 kts | 102° |
| 2026-05-04 20:55 | 25.57154 | 49.56997 | 36458 ft | 531 kts | 102° |
| 2026-05-04 20:55 | 25.56615 | 49.61065 | 35679 ft | 534 kts | 101° |
| 2026-05-04 20:56 | 25.56072 | 49.65149 | 34890 ft | 537 kts | 101° |
| 2026-05-04 20:56 | 25.55527 | 49.69243 | 34289 ft | 536 kts | 101° |
| 2026-05-04 20:56 | 25.54986 | 49.73304 | 33715 ft | 533 kts | 101° |
| 2026-05-04 20:56 | 25.54451 | 49.77306 | 33136 ft | 529 kts | 101° |
| 2026-05-04 20:57 | 25.53913 | 49.81320 | 32565 ft | 526 kts | 101° |
| 2026-05-04 20:57 | 25.53376 | 49.85320 | 32007 ft | 522 kts | 101° |
| 2026-05-04 20:57 | 25.52842 | 49.89281 | 31463 ft | 519 kts | 101° |
| 2026-05-04 20:57 | 25.52312 | 49.93211 | 30920 ft | 515 kts | 101° |
| 2026-05-04 20:58 | 25.51782 | 49.97126 | 30381 ft | 512 kts | 101° |
| 2026-05-04 20:58 | 25.51254 | 50.01015 | 29835 ft | 509 kts | 101° |
| 2026-05-04 20:58 | 25.50729 | 50.04878 | 29234 ft | 506 kts | 101° |
| 2026-05-04 20:58 | 25.50208 | 50.08706 | 28690 ft | 501 kts | 101° |
| 2026-05-04 20:59 | 25.49690 | 50.12504 | 28152 ft | 496 kts | 101° |
| 2026-05-04 20:59 | 25.49177 | 50.16261 | 27625 ft | 491 kts | 100° |
| 2026-05-04 20:59 | 25.48667 | 50.19977 | 27097 ft | 487 kts | 100° |
| 2026-05-04 20:59 | 25.48162 | 50.23664 | 26558 ft | 482 kts | 100° |
| 2026-05-04 21:00 | 25.47659 | 50.27320 | 26045 ft | 477 kts | 100° |
| 2026-05-04 21:00 | 25.47161 | 50.30933 | 25520 ft | 473 kts | 100° |
| 2026-05-04 21:00 | 25.46667 | 50.34512 | 24997 ft | 468 kts | 99° |
| 2026-05-04 21:00 | 25.46176 | 50.38062 | 24465 ft | 464 kts | 99° |
| 2026-05-04 21:01 | 25.45689 | 50.41572 | 23950 ft | 460 kts | 99° |
| 2026-05-04 21:01 | 25.45205 | 50.45062 | 23430 ft | 456 kts | 99° |
| 2026-05-04 21:01 | 25.44726 | 50.48511 | 22830 ft | 451 kts | 99° |
| 2026-05-04 21:01 | 25.44257 | 50.51879 | 22302 ft | 445 kts | 99° |
| 2026-05-04 21:02 | 25.43789 | 50.55238 | 21788 ft | 439 kts | 99° |
| 2026-05-04 21:02 | 25.43326 | 50.58555 | 21283 ft | 433 kts | 99° |
| 2026-05-04 21:02 | 25.42794 | 50.61797 | 20898 ft | 423 kts | 106° |
| 2026-05-04 21:02 | 25.41881 | 50.64845 | 20384 ft | 416 kts | 112° |
| 2026-05-04 21:03 | 25.40830 | 50.67820 | 19890 ft | 412 kts | 113° |
| 2026-05-04 21:03 | 25.39781 | 50.70740 | 19462 ft | 405 kts | 113° |
| 2026-05-04 21:03 | 25.38749 | 50.73623 | 18969 ft | 401 kts | 113° |
| 2026-05-04 21:03 | 25.37729 | 50.76486 | 18470 ft | 398 kts | 113° |
| 2026-05-04 21:04 | 25.36720 | 50.79323 | 17983 ft | 394 kts | 113° |
| 2026-05-04 21:04 | 25.35722 | 50.82130 | 17439 ft | 390 kts | 112° |
| 2026-05-04 21:04 | 25.34735 | 50.84906 | 16949 ft | 385 kts | 112° |
| 2026-05-04 21:04 | 25.33760 | 50.87649 | 16469 ft | 382 kts | 112° |
| 2026-05-04 21:05 | 25.32790 | 50.90375 | 15993 ft | 380 kts | 112° |
| 2026-05-04 21:05 | 25.31839 | 50.93049 | 15536 ft | 378 kts | 112° |
| 2026-05-04 21:05 | 25.30877 | 50.95750 | 15049 ft | 376 kts | 111° |
| 2026-05-04 21:05 | 25.29922 | 50.98434 | 14579 ft | 374 kts | 111° |
| 2026-05-04 21:06 | 25.28971 | 51.01100 | 14101 ft | 372 kts | 111° |
| 2026-05-04 21:06 | 25.28025 | 51.03755 | 13640 ft | 370 kts | 110° |
| 2026-05-04 21:06 | 25.27146 | 51.06418 | 13136 ft | 367 kts | 104° |
| 2026-05-04 21:06 | 25.26827 | 51.09190 | 12682 ft | 363 kts | 89° |
| 2026-05-04 21:07 | 25.26838 | 51.11973 | 12224 ft | 361 kts | 86° |
| 2026-05-04 21:07 | 25.26887 | 51.14735 | 11772 ft | 359 kts | 86° |
| 2026-05-04 21:07 | 25.26932 | 51.17481 | 11314 ft | 357 kts | 86° |
| 2026-05-04 21:07 | 25.26971 | 51.20213 | 10876 ft | 355 kts | 86° |
| 2026-05-04 21:08 | 25.27004 | 51.22919 | 10547 ft | 347 kts | 86° |
| 2026-05-04 21:08 | 25.26951 | 51.25538 | 10312 ft | 336 kts | 94° |
| 2026-05-04 21:08 | 25.26528 | 51.28034 | 10081 ft | 327 kts | 100° |
| 2026-05-04 21:08 | 25.26020 | 51.30401 | 9732 ft | 322 kts | 101° |
| 2026-05-04 21:09 | 25.25501 | 51.32782 | 9448 ft | 314 kts | 101° |
| 2026-05-04 21:09 | 25.25000 | 51.35086 | 9283 ft | 302 kts | 100° |
| 2026-05-04 21:09 | 25.24681 | 51.36563 | 9171 ft | 294 kts | 99° |
| 2026-05-04 21:09 | 25.24216 | 51.38721 | 9017 ft | 283 kts | 99° |
| 2026-05-04 21:10 | 25.23627 | 51.41461 | 8808 ft | 270 kts | 99° |
| 2026-05-04 21:10 | 25.23201 | 51.43446 | 8659 ft | 260 kts | 99° |
| 2026-05-04 21:10 | 25.22923 | 51.44744 | 8554 ft | 254 kts | 99° |
| 2026-05-04 21:10 | 25.22195 | 51.47165 | 8361 ft | 251 kts | 116° |
| 2026-05-04 21:11 | 25.21507 | 51.48206 | 8283 ft | 256 kts | 133° |
| 2026-05-04 21:11 | 25.20050 | 51.49324 | 8153 ft | 256 kts | 155° |
| 2026-05-04 21:11 | 25.18406 | 51.50086 | 8004 ft | 256 kts | 159° |
| 2026-05-04 21:11 | 25.16743 | 51.50793 | 7862 ft | 256 kts | 159° |
| 2026-05-04 21:12 | 25.15081 | 51.51504 | 7712 ft | 256 kts | 159° |
| 2026-05-04 21:12 | 25.13426 | 51.52220 | 7554 ft | 254 kts | 159° |
| 2026-05-04 21:12 | 25.11795 | 51.52931 | 7335 ft | 249 kts | 159° |
| 2026-05-04 21:12 | 25.10203 | 51.53625 | 7058 ft | 244 kts | 159° |
| 2026-05-04 21:13 | 25.08631 | 51.54308 | 6799 ft | 241 kts | 159° |
| 2026-05-04 21:13 | 25.07077 | 51.54980 | 6527 ft | 238 kts | 159° |
| 2026-05-04 21:13 | 25.05538 | 51.55643 | 6246 ft | 236 kts | 159° |
| 2026-05-04 21:13 | 25.04069 | 51.56407 | 5939 ft | 232 kts | 142° |
| 2026-05-04 21:14 | 25.03102 | 51.57749 | 5658 ft | 220 kts | 107° |
| 2026-05-04 21:14 | 25.02954 | 51.59347 | 5380 ft | 205 kts | 73° |
| 2026-05-04 21:14 | 25.03333 | 51.60832 | 5084 ft | 199 kts | 64° |
| 2026-05-04 21:14 | 25.03813 | 51.62260 | 4818 ft | 198 kts | 63° |
| 2026-05-04 21:15 | 25.04306 | 51.63675 | 4548 ft | 197 kts | 62° |
| 2026-05-04 21:15 | 25.04799 | 51.65080 | 4247 ft | 196 kts | 62° |
| 2026-05-04 21:15 | 25.05356 | 51.66431 | 3945 ft | 190 kts | 50° |
| 2026-05-04 21:15 | 25.06366 | 51.67276 | 3719 ft | 181 kts | 19° |
| 2026-05-04 21:16 | 25.07550 | 51.67729 | 3493 ft | 180 kts | 13° |
| 2026-05-04 21:16 | 25.08772 | 51.67826 | 3334 ft | 175 kts | 349° |
| 2026-05-04 21:16 | 25.09906 | 51.67438 | 3135 ft | 168 kts | 339° |
| 2026-05-04 21:16 | 25.10974 | 51.66962 | 2916 ft | 163 kts | 339° |
| 2026-05-04 21:17 | 25.11997 | 51.66514 | 2698 ft | 157 kts | 339° |
| 2026-05-04 21:17 | 25.13013 | 51.66068 | 2505 ft | 154 kts | 339° |
| 2026-05-04 21:17 | 25.14001 | 51.65633 | 2317 ft | 152 kts | 339° |
| 2026-05-04 21:17 | 25.14984 | 51.65200 | 2122 ft | 152 kts | 339° |
| 2026-05-04 21:18 | 25.15963 | 51.64768 | 1934 ft | 152 kts | 339° |
| 2026-05-04 21:18 | 25.16927 | 51.64342 | 1745 ft | 151 kts | 339° |
| 2026-05-04 21:18 | 25.17904 | 51.63910 | 1556 ft | 151 kts | 339° |
| 2026-05-04 21:18 | 25.18879 | 51.63480 | 1358 ft | 151 kts | 339° |
| 2026-05-04 21:19 | 25.19829 | 51.63062 | 1179 ft | 141 kts | 338° |
| 2026-05-04 21:19 | 25.20701 | 51.62676 | 1000 ft | 130 kts | 338° |
| 2026-05-04 21:19 | 25.21535 | 51.62308 | 857 ft | 129 kts | 337° |
| 2026-05-04 21:19 | 25.22364 | 51.61933 | 697 ft | 128 kts | 336° |
| 2026-05-04 21:20 | 25.23194 | 51.61562 | 509 ft | 131 kts | 336° |
| 2026-05-04 21:20 | 25.24052 | 51.61187 | 365 ft | 135 kts | 338° |
| 2026-05-04 21:20 | 25.24925 | 51.60811 | 205 ft | 134 kts | 337° |
| 2026-05-04 21:20 | 25.25794 | 51.60430 | 51 ft | 135 kts | 337° |
| 2026-05-04 21:21 | 25.26593 | 51.60076 | 31 ft | 98 kts | 339° |
| 2026-05-04 21:21 | 25.26992 | 51.59902 | 31 ft | 35 kts | 338° |
| 2026-05-04 21:21 | 25.27186 | 51.59828 | 32 ft | 26 kts | 351° |
| 2026-05-04 21:21 | 25.27355 | 51.59826 | 33 ft | 20 kts | 7° |
| 2026-05-04 21:22 | 25.27445 | 51.59852 | 34 ft | 8 kts | 41° |
| 2026-05-04 21:22 | 25.27439 | 51.59887 | 34 ft | 5 kts | 129° |
| 2026-05-04 21:22 | 25.27399 | 51.59920 | 35 ft | 9 kts | 149° |
| 2026-05-04 21:22 | 25.27325 | 51.59958 | 35 ft | 14 kts | 157° |
| 2026-05-04 21:23 | 25.27222 | 51.60004 | 35 ft | 18 kts | 158° |
| 2026-05-04 21:23 | 25.27094 | 51.60060 | 34 ft | 22 kts | 158° |
| 2026-05-04 21:23 | 25.26937 | 51.60131 | 34 ft | 26 kts | 158° |
| 2026-05-04 21:23 | 25.26758 | 51.60209 | 34 ft | 29 kts | 159° |
| 2026-05-04 21:24 | 25.26607 | 51.60276 | 35 ft | 19 kts | 158° |
| 2026-05-04 21:24 | 25.26469 | 51.60336 | 35 ft | 23 kts | 158° |
| 2026-05-04 21:24 | 25.26314 | 51.60404 | 35 ft | 26 kts | 158° |
| 2026-05-04 21:24 | 25.26162 | 51.60471 | 34 ft | 14 kts | 156° |
| 2026-05-04 21:25 | 25.26064 | 51.60528 | 35 ft | 17 kts | 126° |
| 2026-05-04 21:25 | 25.26081 | 51.60653 | 36 ft | 18 kts | 68° |
| 2026-05-04 21:25 | 25.26102 | 51.60742 | 36 ft | 9 kts | 101° |
| 2026-05-04 21:25 | 25.26065 | 51.60807 | 36 ft | 7 kts | 128° |
| 2026-05-04 21:26 | 25.26042 | 51.60840 | 36 ft | 1 kts | 128° |
| 2026-05-04 21:26 | 25.26035 | 51.60850 | 36 ft | 0 kts | 128° |